Time;durP1;ratioP1;P1;durP2;ratioP2;P2;SDS_P1;SDS_P2;PMS_P1;PMS_P2;Temp;Humidity;BMP_temperature;BMP_pressure;BME280_temperature;BME280_humidity;BME280_pressure;Samples;Min_cycle;Max_cycle;Signal;HPM_P1;HPM_P2
2023/09/26 00:00:56;;;;;;;2.42;1.40;;;;;;;14.27;87.50;101669.44;5053347;28;20029;-57
2023/09/26 00:03:21;;;;;;;2.40;1.27;;;;;;;14.28;87.66;101667.50;5056023;28;20111;-59
2023/09/26 00:05:48;;;;;;;2.05;1.40;;;;;;;14.26;87.85;101667.03;5049801;28;20025;-54
2023/09/26 00:08:14;;;;;;;2.25;1.45;;;;;;;14.26;87.62;101669.75;5055495;28;20037;-58
2023/09/26 00:10:40;;;;;;;8.27;1.63;;;;;;;14.30;87.63;101668.69;5048206;28;20372;-57
2023/09/26 00:13:06;;;;;;;1.92;1.20;;;;;;;14.31;86.99;101677.63;5053019;28;20070;-62
2023/09/26 00:15:33;;;;;;;2.30;1.60;;;;;;;14.34;87.03;101671.50;5047207;28;20024;-53
2023/09/26 00:17:59;;;;;;;1.52;1.30;;;;;;;14.28;87.17;101667.50;5048658;28;20100;-61
2023/09/26 00:20:27;;;;;;;2.17;1.70;;;;;;;14.35;87.23;101675.78;5034501;28;20606;-60
2023/09/26 00:22:56;;;;;;;1.88;1.50;;;;;;;14.36;86.90;101669.25;5047347;28;20375;-62
2023/09/26 00:25:23;;;;;;;2.45;1.60;;;;;;;14.38;86.74;101673.16;5051599;28;20025;-56
2023/09/26 00:27:49;;;;;;;1.60;1.25;;;;;;;14.23;86.88;101673.94;5052387;28;20507;-59
2023/09/26 00:30:15;;;;;;;2.20;1.42;;;;;;;14.21;87.08;101668.09;5052466;28;20069;-58
2023/09/26 00:32:41;;;;;;;3.35;1.40;;;;;;;14.07;87.87;101675.13;5049824;28;20062;-57
2023/09/26 00:35:13;;;;;;;2.13;1.30;;;;;;;14.10;87.71;101675.22;5052625;28;20020;-61
2023/09/26 00:37:41;;;;;;;2.38;1.40;;;;;;;14.13;87.43;101677.19;5052002;28;20037;-61
2023/09/26 00:40:18;;;;;;;2.40;1.60;;;;;;;14.08;87.49;101672.06;5051777;28;20029;-60
2023/09/26 00:42:45;;;;;;;2.47;1.88;;;;;;;14.01;87.35;101669.22;5053597;28;20033;-59
2023/09/26 00:45:12;;;;;;;2.10;1.50;;;;;;;14.02;88.29;101673.47;5073805;28;20063;-57
2023/09/26 00:47:39;;;;;;;1.73;1.42;;;;;;;14.04;88.21;101660.38;5052982;28;20043;-56
2023/09/26 00:50:08;;;;;;;1.45;1.27;;;;;;;14.04;88.13;101673.91;5050632;28;20095;-54
2023/09/26 00:52:35;;;;;;;2.65;1.77;;;;;;;14.08;87.59;101669.38;5052075;28;20021;-56
2023/09/26 00:55:04;;;;;;;1.52;1.35;;;;;;;13.86;88.95;101664.59;5055916;28;20082;-57
2023/09/26 00:57:32;;;;;;;1.50;1.30;;;;;;;13.84;88.67;101666.09;5053964;28;20040;-56
2023/09/26 01:00:01;;;;;;;2.08;1.50;;;;;;;13.88;89.28;101653.41;5052184;28;20192;-54
2023/09/26 01:02:26;;;;;;;1.65;1.20;;;;;;;13.81;89.38;101656.75;5050585;28;20052;-59
2023/09/26 01:04:52;;;;;;;3.97;1.80;;;;;;;13.92;89.04;101668.59;5057367;28;20503;-61
2023/09/26 01:07:18;;;;;;;2.67;1.67;;;;;;;13.97;88.19;101664.84;5057251;28;20478;-61
2023/09/26 01:09:44;;;;;;;2.30;1.58;;;;;;;13.95;88.46;101665.19;5054511;28;20224;-57
2023/09/26 01:12:11;;;;;;;1.60;1.50;;;;;;;13.94;88.61;101666.31;5049899;28;20032;-61
2023/09/26 01:14:36;;;;;;;2.25;1.70;;;;;;;13.95;88.08;101667.13;5056167;28;20047;-60
2023/09/26 01:17:02;;;;;;;2.63;1.60;;;;;;;13.95;88.45;101665.19;5059565;28;20488;-58
2023/09/26 01:19:27;;;;;;;2.10;1.42;;;;;;;13.83;87.85;101662.59;5051162;28;20037;-60
2023/09/26 01:21:53;;;;;;;1.75;1.30;;;;;;;13.83;87.97;101653.69;5052470;28;20032;-59
2023/09/26 01:24:18;;;;;;;1.67;1.55;;;;;;;13.73;88.25;101654.19;5048580;28;20035;-62
2023/09/26 01:26:44;;;;;;;2.00;1.45;;;;;;;13.62;88.69;101659.38;5051225;28;20095;-58
2023/09/26 01:29:10;;;;;;;2.20;1.35;;;;;;;13.59;88.88;101651.94;5050099;28;20028;-59
2023/09/26 01:31:36;;;;;;;1.85;1.40;;;;;;;13.62;88.35;101650.47;5053972;28;20040;-59
2023/09/26 01:34:03;;;;;;;4.45;1.80;;;;;;;13.70;88.10;101657.63;5056115;28;20120;-58
2023/09/26 01:36:29;;;;;;;1.73;1.42;;;;;;;13.59;87.91;101654.66;5057959;28;20032;-58
2023/09/26 01:38:55;;;;;;;2.17;1.70;;;;;;;13.66;88.15;101652.13;5046000;28;20470;-62
2023/09/26 01:41:24;;;;;;;2.25;1.45;;;;;;;13.63;87.96;101647.41;5044746;28;20037;-58
2023/09/26 01:43:50;;;;;;;2.53;1.70;;;;;;;13.47;88.82;101652.06;5047201;28;20037;-57
2023/09/26 01:46:19;;;;;;;2.75;1.50;;;;;;;13.45;89.01;101648.91;5048218;28;20086;-56
2023/09/26 01:48:45;;;;;;;2.33;1.55;;;;;;;13.53;89.49;101648.72;5049896;28;20078;-59
2023/09/26 01:51:10;;;;;;;2.13;1.55;;;;;;;13.51;89.20;101647.53;5048659;28;20024;-57
2023/09/26 01:53:36;;;;;;;2.88;1.77;;;;;;;13.46;89.83;101634.22;5054736;28;20449;-61
2023/09/26 01:56:02;;;;;;;1.88;1.48;;;;;;;13.47;89.80;101641.22;5057365;28;20199;-61
2023/09/26 01:58:27;;;;;;;1.80;1.38;;;;;;;13.44;89.47;101631.09;5052709;28;20586;-60
2023/09/26 02:00:53;;;;;;;5.40;1.60;;;;;;;13.55;89.00;101634.81;5053546;28;20582;-60
2023/09/26 02:03:19;;;;;;;2.55;1.95;;;;;;;13.50;88.84;101629.69;5051732;28;20020;-59
2023/09/26 02:05:45;;;;;;;2.45;1.50;;;;;;;13.42;89.60;101638.78;5050327;28;20445;-63
2023/09/26 02:08:12;;;;;;;3.10;1.60;;;;;;;13.46;89.66;101637.72;5053862;28;20036;-59
2023/09/26 02:10:37;;;;;;;2.20;1.80;;;;;;;13.45;89.09;101638.09;5055609;28;20041;-57
2023/09/26 02:13:03;;;;;;;2.95;1.70;;;;;;;13.40;89.20;101624.81;5053860;28;20099;-59
2023/09/26 02:15:29;;;;;;;2.03;1.52;;;;;;;13.36;89.54;101629.34;5051047;28;20029;-59
2023/09/26 02:17:54;;;;;;;1.67;1.40;;;;;;;13.36;89.09;101630.13;5052351;28;20025;-57
2023/09/26 02:20:20;;;;;;;1.85;1.45;;;;;;;13.22;89.10;101631.72;5049758;28;20021;-57
2023/09/26 02:22:47;;;;;;;2.97;1.75;;;;;;;13.19;89.89;101635.09;5053292;28;20043;-57
2023/09/26 02:25:14;;;;;;;4.00;2.05;;;;;;;13.22;89.28;101639.81;5050479;28;20040;-61
2023/09/26 02:27:41;;;;;;;4.05;1.92;;;;;;;13.28;89.10;101639.19;5053201;28;20021;-56
2023/09/26 02:30:09;;;;;;;2.70;1.92;;;;;;;13.29;88.72;101640.78;5048318;28;20132;-61
2023/09/26 02:32:35;;;;;;;2.08;1.45;;;;;;;13.34;88.92;101635.09;5047455;28;20037;-58
2023/09/26 02:35:05;;;;;;;2.22;1.40;;;;;;;13.29;88.37;101640.78;5049355;28;20408;-57
2023/09/26 02:37:31;;;;;;;3.03;1.70;;;;;;;13.27;88.70;101629.53;5046834;28;20909;-58
2023/09/26 02:39:56;;;;;;;1.92;1.48;;;;;;;13.31;88.47;101625.00;5047620;28;20036;-61
2023/09/26 02:42:22;;;;;;;3.00;1.80;;;;;;;13.36;88.52;101624.72;5045752;28;20037;-59
2023/09/26 02:44:48;;;;;;;1.75;1.48;;;;;;;13.32;88.09;101628.47;5046558;28;20021;-61
2023/09/26 02:47:14;;;;;;;1.85;1.50;;;;;;;13.29;88.51;101619.16;5044808;28;20311;-62
2023/09/26 02:49:39;;;;;;;4.22;2.00;;;;;;;13.27;89.17;101626.03;5063301;28;21799;-59
2023/09/26 02:52:05;;;;;;;2.85;1.98;;;;;;;13.28;89.04;101627.59;5044296;28;20049;-58
2023/09/26 02:54:30;;;;;;;3.13;1.30;;;;;;;13.24;89.17;101621.31;5044483;28;20016;-53
2023/09/26 02:56:57;;;;;;;2.72;1.70;;;;;;;13.18;88.25;101618.06;5050136;28;20033;-60
2023/09/26 02:59:23;;;;;;;2.75;2.03;;;;;;;13.11;88.65;101609.00;5052801;28;20030;-55
2023/09/26 03:01:50;;;;;;;2.17;1.58;;;;;;;13.02;89.24;101603.75;5052164;28;20372;-55
2023/09/26 03:04:15;;;;;;;1.88;1.48;;;;;;;12.94;89.26;101606.59;5033055;28;20042;-58
2023/09/26 03:06:41;;;;;;;2.65;1.52;;;;;;;12.97;89.65;101603.97;5055953;28;20036;-58
2023/09/26 03:09:15;;;;;;;2.17;1.55;;;;;;;12.92;89.56;101617.75;5053867;28;20107;-62
2023/09/26 03:11:41;;;;;;;1.40;1.30;;;;;;;12.88;89.55;101614.19;5057583;28;20051;-54
2023/09/26 03:14:07;;;;;;;1.60;1.25;;;;;;;12.99;89.23;101614.47;5051847;28;20107;-58
2023/09/26 03:16:32;;;;;;;1.98;1.45;;;;;;;12.97;88.91;101611.31;5046846;28;20140;-56
2023/09/26 03:18:58;;;;;;;2.10;1.50;;;;;;;12.78;89.44;101609.25;5049473;28;20079;-57
2023/09/26 03:21:24;;;;;;;2.50;1.23;;;;;;;12.85;89.45;101606.78;5052453;28;20490;-62
2023/09/26 03:23:50;;;;;;;1.88;1.40;;;;;;;12.86;89.42;101616.44;5047429;28;20032;-59
2023/09/26 03:26:16;;;;;;;1.88;1.30;;;;;;;12.94;89.57;101620.13;5051587;28;20031;-61
2023/09/26 03:28:44;;;;;;;2.13;1.65;;;;;;;12.84;89.04;101615.19;5045792;28;20025;-62
2023/09/26 03:31:10;;;;;;;1.40;1.30;;;;;;;12.70;88.97;101602.09;5052004;28;20032;-62
2023/09/26 03:33:37;;;;;;;2.15;1.70;;;;;;;12.71;89.21;101606.38;5054531;28;20032;-58
2023/09/26 03:36:03;;;;;;;2.60;1.75;;;;;;;12.75;89.11;101609.19;5057091;28;20039;-59
2023/09/26 03:38:29;;;;;;;2.47;1.88;;;;;;;12.74;89.75;101602.22;5048718;28;20021;-59
2023/09/26 03:41:00;;;;;;;2.85;1.98;;;;;;;12.70;89.82;101607.50;5048038;28;20044;-55
2023/09/26 03:43:26;;;;;;;2.10;1.63;;;;;;;12.60;90.10;101600.69;5048300;28;20052;-60
2023/09/26 03:46:02;;;;;;;1.88;1.38;;;;;;;12.61;89.58;101607.66;5049090;28;20041;-61
2023/09/26 03:48:28;;;;;;;1.60;1.27;;;;;;;12.54;89.24;101602.03;5054500;28;20032;-62
2023/09/26 03:50:54;;;;;;;2.08;1.70;;;;;;;12.55;89.39;101603.63;5055728;28;20037;-61
2023/09/26 03:53:20;;;;;;;1.70;1.45;;;;;;;12.50;89.51;101598.47;5053730;28;20495;-59
2023/09/26 03:55:53;;;;;;;3.17;1.50;;;;;;;12.44;89.68;101596.38;5052450;28;20033;-61
2023/09/26 03:58:19;;;;;;;1.67;1.42;;;;;;;12.48;89.74;101600.75;5047398;28;20029;-60
2023/09/26 04:00:44;;;;;;;2.75;1.73;;;;;;;12.57;89.18;101604.06;5049274;28;20035;-62
2023/09/26 04:03:11;;;;;;;2.33;1.63;;;;;;;12.57;89.27;101597.88;5045749;28;20040;-60
2023/09/26 04:05:36;;;;;;;5.82;1.75;;;;;;;12.48;89.60;101592.63;5050516;28;20021;-58
2023/09/26 04:08:02;;;;;;;2.90;1.75;;;;;;;12.45;89.79;101603.31;5056690;28;20040;-59
2023/09/26 04:10:27;;;;;;;3.40;1.73;;;;;;;12.42;90.05;101604.81;5055868;28;20025;-60
2023/09/26 04:12:53;;;;;;;2.00;1.67;;;;;;;12.46;90.73;101597.59;5054914;28;20028;-62
2023/09/26 04:15:19;;;;;;;1.95;1.58;;;;;;;12.50;90.00;101600.41;5051397;28;20037;-56
2023/09/26 04:17:45;;;;;;;1.63;1.50;;;;;;;12.44;90.03;101590.97;5051503;28;20468;-58
2023/09/26 04:20:16;;;;;;;2.20;1.55;;;;;;;12.45;89.70;101585.22;5046710;28;20021;-61
2023/09/26 04:22:41;;;;;;;1.65;1.38;;;;;;;12.49;89.42;101594.19;5049500;28;20104;-59
2023/09/26 04:25:07;;;;;;;2.13;1.75;;;;;;;12.48;88.49;101583.75;5052353;28;20095;-59
2023/09/26 04:27:33;;;;;;;3.58;1.98;;;;;;;12.44;89.30;101582.84;5052204;28;20025;-61
2023/09/26 04:29:58;;;;;;;2.30;1.45;;;;;;;12.37;89.81;101591.53;5058380;28;20056;-59
2023/09/26 04:32:24;;;;;;;2.38;1.83;;;;;;;12.27;90.03;101583.91;5055721;28;20032;-59
2023/09/26 04:34:49;;;;;;;2.67;1.70;;;;;;;12.26;89.79;101581.56;5052581;28;20490;-57
2023/09/26 04:37:14;;;;;;;4.70;1.38;;;;;;;12.27;89.45;101573.13;5059692;28;20040;-58
2023/09/26 04:39:40;;;;;;;5.47;1.60;;;;;;;12.22;89.55;101584.16;5051386;28;20473;-61
2023/09/26 04:42:05;;;;;;;2.25;1.65;;;;;;;12.17;89.58;101575.53;5049222;28;20040;-60
2023/09/26 04:44:31;;;;;;;2.95;2.05;;;;;;;12.09;89.66;101582.63;5049158;28;20016;-59
2023/09/26 04:46:56;;;;;;;2.80;1.60;;;;;;;12.11;90.25;101571.50;5049383;28;20112;-61
2023/09/26 04:49:22;;;;;;;3.15;2.10;;;;;;;12.25;89.76;101574.59;5046702;28;20345;-57
2023/09/26 04:51:48;;;;;;;2.47;1.73;;;;;;;12.23;89.79;101574.94;5056263;28;20029;-57
2023/09/26 04:54:13;;;;;;;2.78;1.75;;;;;;;12.20;90.34;101570.22;5051309;28;20044;-61
2023/09/26 04:56:38;;;;;;;2.25;1.58;;;;;;;12.23;89.30;101564.13;5055643;28;20044;-61
2023/09/26 04:59:04;;;;;;;2.78;1.75;;;;;;;12.28;89.83;101560.41;5052024;28;20075;-61
2023/09/26 05:01:32;;;;;;;2.75;1.77;;;;;;;12.36;89.79;101556.78;5051834;28;20029;-59
2023/09/26 05:03:57;;;;;;;2.25;1.70;;;;;;;12.42;89.22;101558.09;5043449;28;20037;-60
2023/09/26 05:06:23;;;;;;;2.40;1.50;;;;;;;12.40;89.49;101563.84;5044907;28;20045;-61
2023/09/26 05:08:50;;;;;;;2.35;1.77;;;;;;;12.34;89.64;101570.63;5047338;28;20083;-57
2023/09/26 05:11:16;;;;;;;2.40;1.80;;;;;;;12.33;90.05;101562.88;5045968;28;20029;-60
2023/09/26 05:13:43;;;;;;;3.30;1.80;;;;;;;12.31;89.89;101565.91;5043168;28;20028;-62
2023/09/26 05:16:09;;;;;;;2.38;1.77;;;;;;;12.31;89.60;101562.44;5047768;28;20499;-61
2023/09/26 05:18:35;;;;;;;1.60;1.50;;;;;;;12.30;89.84;101561.63;5050480;28;20035;-59
2023/09/26 05:21:08;;;;;;;2.22;1.42;;;;;;;12.34;89.87;101570.63;5047498;28;20063;-61
2023/09/26 05:23:34;;;;;;;2.33;1.42;;;;;;;12.27;89.85;101567.72;5047772;28;20376;-55
2023/09/26 05:26:07;;;;;;;2.40;1.85;;;;;;;12.16;89.86;101563.94;5049219;28;20035;-60
2023/09/26 05:28:33;;;;;;;2.42;1.67;;;;;;;12.06;90.18;101577.13;5056301;28;20040;-52
2023/09/26 05:30:58;;;;;;;2.30;1.60;;;;;;;11.93;91.29;101575.56;5049932;28;20021;-56
2023/09/26 05:33:24;;;;;;;2.50;1.90;;;;;;;11.87;91.21;101575.03;5032081;28;20033;-62
2023/09/26 05:35:49;;;;;;;6.63;2.05;;;;;;;11.84;92.02;101583.03;5029041;28;20075;-61
2023/09/26 05:38:15;;;;;;;2.42;1.80;;;;;;;11.78;92.32;101583.25;4997177;28;20033;-57
2023/09/26 05:40:40;;;;;;;2.35;2.15;;;;;;;11.90;92.51;101579.75;5024222;28;20029;-62
2023/09/26 05:43:06;;;;;;;1.88;1.40;;;;;;;11.95;92.75;101574.13;5040377;28;20035;-61
2023/09/26 05:45:31;;;;;;;2.08;1.65;;;;;;;12.06;92.28;101583.31;5033961;28;20029;-61
2023/09/26 05:47:57;;;;;;;2.35;1.58;;;;;;;12.16;91.99;101590.94;5023845;28;20032;-61
2023/09/26 05:50:22;;;;;;;2.00;1.67;;;;;;;12.29;91.50;101587.06;5029678;28;20032;-60
2023/09/26 05:52:48;;;;;;;2.75;1.65;;;;;;;12.31;91.67;101590.22;5031943;28;20031;-60
2023/09/26 05:55:13;;;;;;;2.10;1.90;;;;;;;12.44;91.47;101599.88;5033908;28;20180;-61
2023/09/26 05:57:39;;;;;;;2.15;1.90;;;;;;;12.47;91.40;101598.38;5035886;28;20098;-61
2023/09/26 06:00:11;;;;;;;3.63;2.15;;;;;;;12.46;91.02;101589.50;5033648;28;20021;-60
2023/09/26 06:02:37;;;;;;;3.08;2.20;;;;;;;12.53;91.39;101586.19;5024887;28;20032;-62
2023/09/26 06:05:02;;;;;;;2.88;1.70;;;;;;;12.55;91.31;101576.63;5028785;28;20049;-60
2023/09/26 06:07:28;;;;;;;2.70;1.90;;;;;;;12.59;91.73;101585.59;5052621;28;20057;-58
2023/09/26 06:09:53;;;;;;;3.33;2.15;;;;;;;12.64;91.65;101585.34;5027706;28;20033;-62
2023/09/26 06:12:19;;;;;;;3.28;1.75;;;;;;;12.72;91.56;101585.56;5036350;28;20025;-58
2023/09/26 06:14:46;;;;;;;2.80;1.90;;;;;;;12.84;91.58;101588.97;5054262;28;20036;-59
2023/09/26 06:17:11;;;;;;;4.25;2.38;;;;;;;12.89;91.79;101582.53;5044735;28;20488;-61
2023/09/26 06:19:37;;;;;;;2.80;1.98;;;;;;;12.92;91.64;101582.63;5054260;28;20029;-59
2023/09/26 06:22:02;;;;;;;2.45;1.85;;;;;;;12.86;92.22;101586.69;5051302;28;20096;-61
2023/09/26 06:24:28;;;;;;;3.13;2.00;;;;;;;12.95;92.55;101575.72;5049746;28;20158;-62
2023/09/26 06:26:53;;;;;;;2.78;1.88;;;;;;;13.06;92.14;101583.00;5044833;28;20026;-59
2023/09/26 06:29:19;;;;;;;2.47;1.85;;;;;;;13.13;92.69;101588.59;5047665;28;20072;-59
2023/09/26 06:31:45;;;;;;;3.13;2.03;;;;;;;13.22;92.28;101585.72;5051787;28;20025;-59
2023/09/26 06:34:10;;;;;;;3.10;2.10;;;;;;;13.26;92.91;101578.47;5047195;28;20102;-60
2023/09/26 06:36:37;;;;;;;2.85;1.90;;;;;;;13.42;92.44;101579.25;5049884;28;20020;-59
2023/09/26 06:39:02;;;;;;;2.35;1.90;;;;;;;13.59;92.05;101571.53;5054781;28;20060;-61
2023/09/26 06:41:28;;;;;;;3.85;2.03;;;;;;;13.67;92.12;101572.47;5054061;28;20483;-58
2023/09/26 06:43:53;;;;;;;2.60;2.00;;;;;;;13.76;92.30;101570.38;5050653;28;20521;-59
2023/09/26 06:46:19;;;;;;;3.97;2.20;;;;;;;13.79;92.30;101583.19;5049817;28;20037;-61
2023/09/26 06:48:44;;;;;;;3.30;2.05;;;;;;;13.82;92.92;101585.19;5054223;28;20033;-58
2023/09/26 06:51:11;;;;;;;2.58;2.00;;;;;;;13.87;92.95;101584.13;5059155;28;20491;-59
2023/09/26 06:53:37;;;;;;;3.20;2.00;;;;;;;13.91;93.14;101585.78;5048838;28;20025;-58
2023/09/26 06:56:04;;;;;;;2.63;1.80;;;;;;;13.98;92.83;101596.78;5053270;28;20543;-57
2023/09/26 06:58:30;;;;;;;2.55;1.95;;;;;;;14.05;92.93;101580.66;5053486;28;20101;-61
2023/09/26 07:00:55;;;;;;;3.05;1.85;;;;;;;14.10;93.14;101583.09;5052000;28;20123;-61
2023/09/26 07:03:21;;;;;;;3.38;2.25;;;;;;;14.18;92.79;101587.53;5050380;28;20036;-61
2023/09/26 07:05:47;;;;;;;2.67;1.83;;;;;;;14.23;92.58;101581.81;5051596;28;20025;-62
2023/09/26 07:08:14;;;;;;;2.97;2.13;;;;;;;14.30;92.44;101583.94;5048706;28;20450;-58
2023/09/26 07:10:40;;;;;;;4.55;2.85;;;;;;;14.37;92.39;101584.06;5046991;28;20032;-62
2023/09/26 07:13:06;;;;;;;2.78;1.92;;;;;;;14.47;92.34;101578.09;5049993;28;20025;-61
2023/09/26 07:15:32;;;;;;;3.72;1.75;;;;;;;14.59;92.41;101575.22;5051536;28;20047;-60
2023/09/26 07:18:06;;;;;;;4.53;2.40;;;;;;;14.73;92.47;101583.59;5056283;28;20032;-60
2023/09/26 07:20:33;;;;;;;2.42;1.90;;;;;;;14.94;92.34;101581.25;5046926;28;20530;-63
2023/09/26 07:22:59;;;;;;;5.22;2.78;;;;;;;15.26;92.53;101590.75;5051967;28;20032;-57
2023/09/26 07:25:25;;;;;;;7.28;3.33;;;;;;;15.46;92.24;101593.41;5049624;28;20029;-57
2023/09/26 07:27:50;;;;;;;4.30;2.70;;;;;;;15.79;91.45;101590.81;5055509;28;20133;-61
2023/09/26 07:30:16;;;;;;;5.03;3.22;;;;;;;15.96;90.11;101588.34;5055152;28;20067;-58
2023/09/26 07:32:41;;;;;;;4.32;3.05;;;;;;;16.15;90.56;101595.56;5056800;28;20087;-58
2023/09/26 07:35:08;;;;;;;3.50;2.67;;;;;;;16.51;89.92;101603.03;5055182;28;20538;-61
2023/09/26 07:37:34;;;;;;;5.60;3.08;;;;;;;16.85;89.42;101601.06;5054474;28;20029;-59
2023/09/26 07:40:01;;;;;;;5.18;3.00;;;;;;;17.15;89.22;101599.00;5056130;28;20039;-60
2023/09/26 07:42:27;;;;;;;4.50;2.78;;;;;;;17.45;88.41;101613.28;5047687;28;20047;-62
2023/09/26 07:44:55;;;;;;;4.72;3.22;;;;;;;17.60;84.89;101617.72;5047887;28;20037;-60
2023/09/26 07:47:21;;;;;;;6.32;3.65;;;;;;;18.03;83.85;101613.31;5044647;28;20052;-61
2023/09/26 07:49:46;;;;;;;10.65;4.72;;;;;;;18.35;81.23;101614.22;5048730;28;20059;-58
2023/09/26 07:52:11;;;;;;;9.88;4.22;;;;;;;18.37;75.32;101614.63;5051841;28;20467;-61
2023/09/26 07:54:38;;;;;;;6.50;3.90;;;;;;;18.70;76.03;101608.94;5050676;28;20479;-61
2023/09/26 07:57:03;;;;;;;6.22;3.30;;;;;;;18.89;76.23;101608.56;5052790;28;20170;-62
2023/09/26 07:59:28;;;;;;;7.72;3.20;;;;;;;18.80;76.84;101607.38;5045168;28;20025;-58
2023/09/26 08:01:54;;;;;;;5.57;3.33;;;;;;;18.80;77.11;101619.09;5046106;28;20399;-61
2023/09/26 08:04:19;;;;;;;5.32;3.47;;;;;;;18.87;77.44;101613.63;5050644;28;20039;-61
2023/09/26 08:06:45;;;;;;;6.57;3.28;;;;;;;18.70;77.22;101613.59;5047588;28;20044;-57
2023/09/26 08:09:10;;;;;;;7.53;4.05;;;;;;;18.75;75.40;101611.28;5047061;28;20021;-57
2023/09/26 08:11:37;;;;;;;5.72;3.58;;;;;;;18.98;76.03;101610.94;5049756;28;20037;-62
2023/09/26 08:14:03;;;;;;;6.75;3.95;;;;;;;19.08;74.82;101618.38;5053367;28;20033;-61
2023/09/26 08:16:28;;;;;;;6.55;3.83;;;;;;;19.11;74.27;101617.59;5052792;28;20081;-57
2023/09/26 08:18:54;;;;;;;8.27;3.45;;;;;;;19.37;75.38;101611.78;5056222;28;20629;-55
2023/09/26 08:21:19;;;;;;;11.57;3.55;;;;;;;19.64;74.06;101603.94;5050257;28;20236;-57
2023/09/26 08:23:45;;;;;;;10.23;3.45;;;;;;;19.97;73.87;101616.38;5051563;28;20036;-55
2023/09/26 08:26:11;;;;;;;25.65;4.03;;;;;;;20.12;68.63;101612.41;5052971;28;20056;-62
2023/09/26 08:28:40;;;;;;;8.13;3.33;;;;;;;20.49;69.59;101609.97;5046429;28;20033;-59
2023/09/26 08:31:09;;;;;;;4.13;2.42;;;;;;;20.76;68.76;101607.47;5057776;28;20036;-57
2023/09/26 08:33:35;;;;;;;5.38;2.80;;;;;;;20.96;67.06;101614.78;5057481;28;20093;-60
2023/09/26 08:36:01;;;;;;;4.75;2.33;;;;;;;20.91;67.79;101617.94;5054549;28;20032;-60
2023/09/26 08:38:27;;;;;;;4.30;2.53;;;;;;;21.30;67.07;101612.97;5053196;28;20028;-62
2023/09/26 08:40:57;;;;;;;3.92;2.50;;;;;;;21.31;66.74;101625.50;5053145;28;20483;-61
2023/09/26 08:43:24;;;;;;;4.32;2.63;;;;;;;21.40;66.84;101622.31;5048045;28;20048;-58
2023/09/26 08:45:51;;;;;;;3.90;2.60;;;;;;;21.44;62.82;101634.81;5054686;28;20518;-61
2023/09/26 08:48:18;;;;;;;5.45;2.67;;;;;;;21.75;62.51;101623.94;5050905;28;20028;-59
2023/09/26 08:50:43;;;;;;;9.10;2.40;;;;;;;21.91;61.60;101616.72;5046395;28;20056;-63
2023/09/26 08:53:09;;;;;;;5.10;2.92;;;;;;;22.01;62.42;101623.31;5059282;28;20032;-59
2023/09/26 08:55:40;;;;;;;6.10;2.38;;;;;;;22.02;62.82;101631.13;5060962;28;20029;-60
2023/09/26 08:58:06;;;;;;;4.97;3.17;;;;;;;21.91;61.25;101624.22;5056538;28;20524;-62
2023/09/26 09:00:32;;;;;;;3.45;2.15;;;;;;;21.86;61.11;101616.41;5054269;28;20032;-62
2023/09/26 09:02:57;;;;;;;2.80;2.33;;;;;;;22.07;63.06;101611.47;5058231;28;20074;-56
2023/09/26 09:05:23;;;;;;;6.63;2.55;;;;;;;22.22;60.24;101612.09;5058713;28;20039;-57
2023/09/26 09:07:49;;;;;;;3.65;2.33;;;;;;;22.13;60.83;101598.06;5055272;28;20055;-60
2023/09/26 09:10:18;;;;;;;2.35;1.85;;;;;;;22.37;62.64;101600.53;5050139;28;20029;-58
2023/09/26 09:12:50;;;;;;;4.40;1.95;;;;;;;22.61;62.29;101598.66;5049674;28;20028;-56
2023/09/26 09:15:15;;;;;;;3.45;2.00;;;;;;;22.94;60.68;101597.00;5052612;28;20041;-60
2023/09/26 09:17:41;;;;;;;3.35;1.80;;;;;;;23.36;58.49;101598.31;5050526;28;20032;-56
2023/09/26 09:20:07;;;;;;;4.97;2.10;;;;;;;23.17;58.38;101597.78;5053810;28;20445;-59
2023/09/26 09:22:33;;;;;;;3.17;1.73;;;;;;;23.54;58.40;101591.31;5057354;28;20025;-59
2023/09/26 09:24:59;;;;;;;3.20;1.88;;;;;;;23.84;57.79;101588.41;5059003;28;20453;-62
2023/09/26 09:27:43;;;;;;;3.47;2.20;;;;;;;23.92;55.92;101580.78;5056807;28;20483;-59
2023/09/26 09:30:12;;;;;;;4.65;2.10;;;;;;;24.38;57.04;101583.38;5058907;28;20041;-59
2023/09/26 09:32:42;;;;;;;2.85;1.75;;;;;;;24.78;56.38;101592.34;5052823;28;20044;-58
2023/09/26 09:35:09;;;;;;;4.20;2.08;;;;;;;25.08;54.67;101577.47;5059716;28;20394;-55
2023/09/26 09:37:35;;;;;;;2.47;1.58;;;;;;;25.14;54.15;101584.81;5057663;28;20082;-62
2023/09/26 09:40:00;;;;;;;5.78;2.35;;;;;;;24.82;52.84;101579.28;5054006;28;20035;-59
2023/09/26 09:42:26;;;;;;;2.10;1.50;;;;;;;24.57;54.68;101568.78;5054635;28;20032;-57
2023/09/26 09:44:52;;;;;;;3.22;1.77;;;;;;;23.80;56.20;101564.88;5057909;28;20028;-57
2023/09/26 09:47:24;;;;;;;2.30;1.60;;;;;;;23.60;57.77;101562.13;5058853;28;20032;-60
2023/09/26 09:49:51;;;;;;;2.05;1.55;;;;;;;23.49;58.22;101567.03;5047386;28;20037;-58
2023/09/26 09:52:18;;;;;;;3.20;1.65;;;;;;;23.50;58.21;101565.06;5049770;28;20035;-57
2023/09/26 09:54:46;;;;;;;6.38;1.40;;;;;;;23.44;57.93;101558.50;5051219;28;20102;-59
2023/09/26 09:57:14;;;;;;;1.45;1.33;;;;;;;23.36;58.17;101555.09;5051334;28;20258;-55
2023/09/26 09:59:42;;;;;;;1.67;1.55;;;;;;;23.20;57.72;101550.25;5049049;28;20056;-57
2023/09/26 10:02:10;;;;;;;1.48;1.35;;;;;;;23.31;59.24;101555.56;5057981;28;20032;-54
2023/09/26 10:04:39;;;;;;;1.60;1.40;;;;;;;23.34;59.45;101553.97;5052267;28;20044;-56
2023/09/26 10:07:04;;;;;;;5.40;1.50;;;;;;;23.57;60.60;101546.47;5055614;28;20082;-58
2023/09/26 10:09:32;;;;;;;1.67;1.30;;;;;;;23.61;58.51;101541.69;5054700;28;20029;-61
2023/09/26 10:11:59;;;;;;;2.30;1.40;;;;;;;23.69;57.27;101547.81;5056912;28;20079;-61
2023/09/26 10:14:29;;;;;;;1.45;1.20;;;;;;;23.67;57.61;101556.50;5046221;28;20037;-57
2023/09/26 10:16:56;;;;;;;2.65;1.30;;;;;;;23.77;57.22;101546.47;5049529;28;20431;-58
2023/09/26 10:19:26;;;;;;;1.77;1.30;;;;;;;23.80;57.71;101551.13;5049984;28;20021;-61
2023/09/26 10:21:52;;;;;;;1.30;1.10;;;;;;;23.73;56.24;101541.03;5052893;28;20036;-56
2023/09/26 10:24:21;;;;;;;1.85;1.25;;;;;;;23.61;56.19;101541.69;5051514;28;20033;-63
2023/09/26 10:26:49;;;;;;;1.80;1.33;;;;;;;23.32;56.78;101546.16;5052787;28;20036;-60
2023/09/26 10:29:14;;;;;;;2.15;1.40;;;;;;;23.51;56.92;101544.63;5050934;28;20040;-57
2023/09/26 10:31:46;;;;;;;1.75;1.30;;;;;;;23.37;57.32;101544.88;5052654;28;20017;-61
2023/09/26 10:34:12;;;;;;;2.55;1.33;;;;;;;23.39;57.72;101540.50;5051279;28;20044;-61
2023/09/26 10:36:38;;;;;;;1.30;1.08;;;;;;;23.57;58.22;101535.47;5052918;28;20047;-60
2023/09/26 10:39:07;;;;;;;1.88;1.40;;;;;;;23.86;56.96;101535.69;5053251;28;20127;-60
2023/09/26 10:41:33;;;;;;;1.60;1.38;;;;;;;23.32;57.35;101534.34;5051590;28;20122;-59
2023/09/26 10:43:59;;;;;;;3.25;1.20;;;;;;;23.40;56.87;101530.28;5056137;28;20068;-61
2023/09/26 10:46:25;;;;;;;1.63;1.30;;;;;;;23.72;57.67;101530.44;5055705;28;20033;-56
2023/09/26 10:48:51;;;;;;;1.63;1.17;;;;;;;24.11;57.14;101533.22;5057620;28;20029;-54
2023/09/26 10:51:19;;;;;;;3.60;1.25;;;;;;;24.27;56.27;101525.00;5055903;28;20098;-60
2023/09/26 10:53:47;;;;;;;1.53;0.93;;;;;;;24.30;56.04;101524.16;5053995;28;20021;-57
2023/09/26 10:56:14;;;;;;;1.17;0.93;;;;;;;24.28;57.20;101525.78;5055891;28;20313;-58
2023/09/26 10:58:44;;;;;;;1.85;1.27;;;;;;;24.11;55.92;101525.75;5048571;28;20021;-60
2023/09/26 11:01:11;;;;;;;1.80;1.20;;;;;;;23.47;55.54;101513.66;5050046;28;20098;-62
2023/09/26 11:03:37;;;;;;;2.63;1.15;;;;;;;23.59;55.34;101511.06;5048313;28;20036;-58
2023/09/26 11:06:04;;;;;;;1.40;1.20;;;;;;;23.58;56.81;101511.47;5059211;28;20051;-58
2023/09/26 11:08:30;;;;;;;1.77;1.27;;;;;;;23.68;56.67;101507.72;5052815;28;20112;-56
2023/09/26 11:10:57;;;;;;;1.73;1.00;;;;;;;23.80;56.29;101507.09;5053738;28;20550;-56
2023/09/26 11:13:24;;;;;;;1.40;1.20;;;;;;;23.96;55.96;101518.19;5057309;28;20036;-58
2023/09/26 11:15:55;;;;;;;1.50;1.15;;;;;;;24.11;54.94;101522.22;5052751;28;20064;-60
2023/09/26 11:18:21;;;;;;;1.48;1.05;;;;;;;24.20;54.21;101511.38;5055519;28;20036;-60
2023/09/26 11:20:46;;;;;;;1.42;1.20;;;;;;;23.95;54.04;101513.84;5049540;28;20017;-58